Time;durP1;ratioP1;P1;durP2;ratioP2;P2;SDS_P1;SDS_P2;PMS_P1;PMS_P2;Temp;Humidity;BMP_temperature;BMP_pressure;BME280_temperature;BME280_humidity;BME280_pressure;Samples;Min_cycle;Max_cycle;Signal;HPM_P1;HPM_P2
2023/07/23 00:00:38;;;;;;;;;;;;;;;13.18;100.00;100937.59;5034440;28;19971;-78
2023/07/23 00:03:03;;;;;;;;;;;;;;;13.16;100.00;100934.22;5034825;28;20008;-79
2023/07/23 00:05:28;;;;;;;;;;;;;;;13.15;100.00;100927.19;5016351;28;19928;-79
2023/07/23 00:07:54;;;;;;;;;;;;;;;13.15;100.00;100937.88;5034500;28;19917;-78
2023/07/23 00:10:20;;;;;;;;;;;;;;;13.15;100.00;100930.75;5034393;28;19963;-77
2023/07/23 00:12:45;;;;;;;;;;;;;;;13.16;100.00;100931.56;5034384;28;19945;-77
2023/07/23 00:15:12;;;;;;;;;;;;;;;13.17;100.00;100933.25;5034971;28;20000;-78
2023/07/23 00:17:39;;;;;;;;;;;;;;;13.18;100.00;100929.56;5034501;28;20383;-77
2023/07/23 00:20:04;;;;;;;;;;;;;;;13.19;100.00;100923.25;5034606;28;19916;-79
2023/07/23 00:22:29;;;;;;;;;;;;;;;13.18;100.00;100911.72;5034839;28;19921;-78
2023/07/23 00:24:56;;;;;;;;;;;;;;;13.19;100.00;100912.56;5034806;28;20011;-77
2023/07/23 00:27:22;;;;;;;;;;;;;;;13.19;100.00;100910.72;5034825;28;19970;-78
2023/07/23 00:29:47;;;;;;;;;;;;;;;13.20;100.00;100900.88;5034148;28;19917;-78
2023/07/23 00:32:13;;;;;;;;;;;;;;;13.20;100.00;100903.56;5016917;28;19928;-78
2023/07/23 00:34:38;;;;;;;;;;;;;;;13.20;100.00;100899.03;5033891;28;19924;-78
2023/07/23 00:37:03;;;;;;;;;;;;;;;13.21;100.00;100892.72;5034495;28;20393;-79
2023/07/23 00:39:28;;;;;;;;;;;;;;;13.23;100.00;100896.06;5016457;28;19991;-80
2023/07/23 00:41:54;;;;;;;;;;;;;;;13.24;100.00;100883.53;5036267;28;19956;-74
2023/07/23 00:44:19;;;;;;;;;;;;;;;13.26;100.00;100891.41;5036683;28;20337;-74
2023/07/23 00:46:45;;;;;;;;;;;;;;;13.22;100.00;100891.69;5036656;28;19917;-75
2023/07/23 00:49:11;;;;;;;;;;;;;;;13.23;100.00;100879.19;5036379;28;19939;-75
2023/07/23 00:51:36;;;;;;;;;;;;;;;13.22;100.00;100872.16;5036499;28;19925;-74
2023/07/23 00:54:03;;;;;;;;;;;;;;;13.21;100.00;100871.34;5036308;28;19917;-74
2023/07/23 00:56:28;;;;;;;;;;;;;;;13.20;100.00;100872.31;5036890;28;19967;-74
2023/07/23 00:58:54;;;;;;;;;;;;;;;13.22;100.00;100864.16;5036768;28;19921;-74
2023/07/23 01:01:20;;;;;;;;;;;;;;;13.22;100.00;100867.66;5035209;28;19918;-74
2023/07/23 01:03:45;;;;;;;;;;;;;;;13.21;100.00;100866.00;5036355;28;19982;-74
2023/07/23 01:06:11;;;;;;;;;;;;;;;13.21;100.00;100859.78;5036123;28;20309;-74
2023/07/23 01:08:38;;;;;;;;;;;;;;;13.20;100.00;100858.13;5036237;28;19917;-74
2023/07/23 01:11:03;;;;;;;;;;;;;;;13.18;100.00;100844.06;5036308;28;19913;-73
2023/07/23 01:13:29;;;;;;;;;;;;;;;13.18;100.00;100842.25;5036379;28;19913;-73
2023/07/23 01:15:56;;;;;;;;;;;;;;;13.17;100.00;100842.41;5036118;28;19963;-74
2023/07/23 01:18:21;;;;;;;;;;;;;;;13.18;100.00;100850.28;5036153;28;19913;-74
2023/07/23 01:20:46;;;;;;;;;;;;;;;13.20;100.00;100847.44;5036609;28;19971;-73
2023/07/23 01:23:12;;;;;;;;;;;;;;;13.21;100.00;100846.44;5036092;28;20019;-73
2023/07/23 01:25:37;;;;;;;;;;;;;;;13.21;100.00;100844.63;5035997;28;19944;-74
2023/07/23 01:28:02;;;;;;;;;;;;;;;13.23;100.00;100834.59;5035987;28;20007;-75
2023/07/23 01:30:28;;;;;;;;;;;;;;;13.25;100.00;100829.09;5034582;28;19917;-73
2023/07/23 01:32:53;;;;;;;;;;;;;;;13.25;100.00;100825.59;5035394;28;19924;-74
2023/07/23 01:35:19;;;;;;;;;;;;;;;13.26;100.00;100813.94;5035949;28;19920;-74
2023/07/23 01:37:47;;;;;;;;;;;;;;;13.27;100.00;100815.59;5035748;28;20015;-75
2023/07/23 01:40:12;;;;;;;;;;;;;;;13.27;100.00;100810.25;5035808;28;19913;-74
2023/07/23 01:42:38;;;;;;;;;;;;;;;13.27;100.00;100810.25;5036409;28;20320;-75
2023/07/23 01:45:03;;;;;;;;;;;;;;;13.27;100.00;100808.44;5036130;28;19928;-74
2023/07/23 01:47:28;;;;;;;;;;;;;;;13.28;100.00;100798.56;5034155;28;19921;-74
2023/07/23 01:49:54;;;;;;;;;;;;;;;13.27;100.00;100805.75;5035506;28;19925;-74
2023/07/23 01:52:19;;;;;;;;;;;;;;;13.27;100.00;100802.22;5035614;28;19939;-74
2023/07/23 01:54:44;;;;;;;;;;;;;;;13.28;100.00;100796.72;5017577;28;19924;-74
2023/07/23 01:57:09;;;;;;;;;;;;;;;13.28;100.00;100788.72;5035695;28;19921;-74
2023/07/23 01:59:35;;;;;;;;;;;;;;;13.28;100.00;100798.56;5035438;28;19924;-74
2023/07/23 02:02:00;;;;;;;;;;;;;;;13.28;100.00;100786.03;5035524;28;19975;-74
2023/07/23 02:04:25;;;;;;;;;;;;;;;13.28;100.00;100783.38;5035239;28;19924;-74
2023/07/23 02:06:50;;;;;;;;;;;;;;;13.27;100.00;100779.03;5035219;28;20383;-74
2023/07/23 02:09:16;;;;;;;;;;;;;;;13.26;100.00;100772.00;5035761;28;19917;-75
2023/07/23 02:11:41;;;;;;;;;;;;;;;13.27;100.00;100775.50;5035208;28;19962;-75
2023/07/23 02:14:06;;;;;;;;;;;;;;;13.27;100.00;100770.16;5017451;28;19921;-74
2023/07/23 02:16:31;;;;;;;;;;;;;;;13.26;100.00;100761.31;5034685;28;19960;-74
2023/07/23 02:18:57;;;;;;;;;;;;;;;13.28;100.00;100763.84;5035257;28;20353;-74
2023/07/23 02:21:22;;;;;;;;;;;;;;;13.29;100.00;100760.19;5035018;28;19959;-74
2023/07/23 02:23:48;;;;;;;;;;;;;;;13.28;100.00;100745.13;5034831;28;19917;-73
2023/07/23 02:26:13;;;;;;;;;;;;;;;13.29;100.00;100742.31;5034620;28;19924;-74
2023/07/23 02:28:42;;;;;;;;;;;;;;;13.29;100.00;100734.28;5034838;28;19924;-74
2023/07/23 02:31:07;;;;;;;;;;;;;;;13.28;100.00;100724.59;5034726;28;19913;-74
2023/07/23 02:33:33;;;;;;;;;;;;;;;13.29;100.00;100728.94;5034625;28;19917;-74
2023/07/23 02:35:58;;;;;;;;;;;;;;;13.29;100.00;100723.59;5034635;28;20357;-74
2023/07/23 02:38:23;;;;;;;;;;;;;;;13.30;100.00;100717.25;5034959;28;19916;-74
2023/07/23 02:40:54;;;;;;;;;;;;;;;13.33;100.00;100724.09;5034509;28;19920;-75
2023/07/23 02:43:19;;;;;;;;;;;;;;;13.35;100.00;100716.81;5034506;28;19913;-74
2023/07/23 02:45:44;;;;;;;;;;;;;;;13.36;100.00;100713.97;5034199;28;19928;-74
2023/07/23 02:48:09;;;;;;;;;;;;;;;13.38;100.00;100705.81;5034249;28;19917;-74
2023/07/23 02:50:35;;;;;;;;;;;;;;;13.38;100.00;100709.31;5034040;28;19917;-73
2023/07/23 02:53:00;;;;;;;;;;;;;;;13.38;100.00;100695.13;5034204;28;19936;-73
2023/07/23 02:55:25;;;;;;;;;;;;;;;13.38;100.00;100701.28;5034263;28;20289;-73
2023/07/23 02:57:51;;;;;;;;;;;;;;;13.40;100.00;100693.09;5034173;28;19979;-75
2023/07/23 03:00:18;;;;;;;;;;;;;;;13.40;100.00;100696.63;5034789;28;20371;-73
2023/07/23 03:02:44;;;;;;;;;;;;;;;13.40;100.00;100690.44;5034052;28;19924;-74
2023/07/23 03:05:09;;;;;;;;;;;;;;;13.41;100.00;100686.78;5032715;28;20019;-73
2023/07/23 03:07:35;;;;;;;;;;;;;;;13.42;100.00;100684.94;5033728;28;20289;-73
2023/07/23 03:10:01;;;;;;;;;;;;;;;13.42;100.00;100674.22;5034201;28;19994;-73
2023/07/23 03:12:26;;;;;;;;;;;;;;;13.43;100.00;100675.91;5033752;28;20374;-73
2023/07/23 03:14:52;;;;;;;;;;;;;;;13.42;100.00;100676.91;5033655;28;20399;-73
2023/07/23 03:17:17;;;;;;;;;;;;;;;13.43;100.00;100674.06;5034101;28;19913;-74
2023/07/23 03:19:42;;;;;;;;;;;;;;;13.41;100.00;100670.75;5033896;28;19924;-74
2023/07/23 03:22:08;;;;;;;;;;;;;;;13.42;100.00;100660.88;5033482;28;20289;-73
2023/07/23 03:24:33;;;;;;;;;;;;;;;13.42;100.00;100666.22;5034368;28;19921;-74
2023/07/23 03:26:58;;;;;;;;;;;;;;;13.42;100.00;100656.38;5033997;28;20334;-73
2023/07/23 03:29:23;;;;;;;;;;;;;;;13.45;100.00;100655.19;5033712;28;19924;-74
2023/07/23 03:31:49;;;;;;;;;;;;;;;13.46;100.00;100651.53;5016558;28;19924;-73
2023/07/23 03:34:14;;;;;;;;;;;;;;;13.46;100.00;100649.69;5034066;28;19940;-74
2023/07/23 03:36:39;;;;;;;;;;;;;;;13.46;100.00;100646.19;5033706;28;20373;-74
2023/07/23 03:39:04;;;;;;;;;;;;;;;13.45;100.00;100639.16;5016352;28;19924;-74
2023/07/23 03:41:30;;;;;;;;;;;;;;;13.44;100.00;100643.69;5034200;28;20341;-74
2023/07/23 03:43:55;;;;;;;;;;;;;;;13.45;100.00;100641.84;5033485;28;19921;-73
2023/07/23 03:46:20;;;;;;;;;;;;;;;13.45;100.00;100633.81;5033616;28;20043;-74
2023/07/23 03:48:47;;;;;;;;;;;;;;;13.43;100.00;100639.31;5033246;28;19916;-74
2023/07/23 03:51:13;;;;;;;;;;;;;;;13.43;100.00;100636.66;5033791;28;19920;-74
2023/07/23 03:53:38;;;;;;;;;;;;;;;13.43;100.00;100627.81;5033229;28;19940;-73
2023/07/23 03:56:04;;;;;;;;;;;;;;;13.42;100.00;100626.13;5033502;28;20385;-74
2023/07/23 03:58:29;;;;;;;;;;;;;;;13.41;100.00;100627.97;5015796;28;20355;-74
2023/07/23 04:00:54;;;;;;;;;;;;;;;13.42;100.00;100627.00;5033475;28;19921;-72
2023/07/23 04:03:19;;;;;;;;;;;;;;;13.43;100.00;100625.16;5033638;28;19921;-72
2023/07/23 04:05:45;;;;;;;;;;;;;;;13.45;100.00;100620.47;5033405;28;19928;-74
2023/07/23 04:08:10;;;;;;;;;;;;;;;13.47;100.00;100627.31;5033395;28;20007;-75
2023/07/23 04:10:35;;;;;;;;;;;;;;;13.49;100.00;100624.47;5033446;28;19917;-74
2023/07/23 04:13:03;;;;;;;;;;;;;;;13.51;100.00;100622.47;5033217;28;20377;-75
2023/07/23 04:15:28;;;;;;;;;;;;;;;13.51;100.00;100626.00;5033372;28;19917;-73
2023/07/23 04:17:54;;;;;;;;;;;;;;;13.52;100.00;100624.97;5033865;28;19917;-74
2023/07/23 04:20:19;;;;;;;;;;;;;;;13.55;100.00;100614.00;5015703;28;19917;-74
2023/07/23 04:22:44;;;;;;;;;;;;;;;13.57;100.00;100616.50;5015974;28;19972;-74
2023/07/23 04:25:09;;;;;;;;;;;;;;;13.58;100.00;100619.00;5033588;28;20250;-74
2023/07/23 04:27:35;;;;;;;;;;;;;;;13.60;100.00;100613.50;5015594;28;19921;-73
2023/07/23 04:30:00;;;;;;;;;;;;;;;13.62;100.00;100614.16;5033350;28;19917;-73
2023/07/23 04:32:25;;;;;;;;;;;;;;;13.64;100.00;100617.50;5033133;28;19920;-74
2023/07/23 04:34:50;;;;;;;;;;;;;;;13.65;100.00;100613.81;5033103;28;19917;-73
2023/07/23 04:37:16;;;;;;;;;;;;;;;13.66;100.00;100610.16;5015578;28;20321;-74
2023/07/23 04:39:41;;;;;;;;;;;;;;;13.70;100.00;100610.66;5034306;28;20419;-74
2023/07/23 04:42:06;;;;;;;;;;;;;;;13.71;100.00;100615.00;5037029;28;20328;-72
2023/07/23 04:44:31;;;;;;;;;;;;;;;13.73;100.00;100602.31;5036738;28;20416;-74
2023/07/23 04:46:57;;;;;;;;;;;;;;;13.73;100.00;100603.16;5037204;28;19964;-74
2023/07/23 04:49:22;;;;;;;;;;;;;;;13.74;100.00;100606.66;5036847;28;19967;-73
2023/07/23 04:51:47;;;;;;;;;;;;;;;13.77;100.00;100600.16;5036582;28;19924;-73
2023/07/23 04:54:12;;;;;;;;;;;;;;;13.77;100.00;100606.31;5036488;28;19979;-74
2023/07/23 04:56:38;;;;;;;;;;;;;;;13.79;100.00;100612.34;5036558;28;19916;-74
2023/07/23 04:59:03;;;;;;;;;;;;;;;13.81;100.00;100605.00;5018797;28;19974;-74
2023/07/23 05:01:28;;;;;;;;;;;;;;;13.83;100.00;100602.16;5018579;28;20066;-74
2023/07/23 05:03:53;;;;;;;;;;;;;;;13.87;100.00;100608.84;5036383;28;19917;-73
2023/07/23 05:06:18;;;;;;;;;;;;;;;13.87;100.00;100609.69;5036312;28;19917;-74
2023/07/23 05:08:44;;;;;;;;;;;;;;;13.86;100.00;100607.16;5036293;28;19917;-73
2023/07/23 05:11:09;;;;;;;;;;;;;;;13.88;100.00;100606.00;5036479;28;19917;-75
2023/07/23 05:13:35;;;;;;;;;;;;;;;13.88;100.00;100611.38;5036684;28;19921;-73
2023/07/23 05:16:02;;;;;;;;;;;;;;;13.87;100.00;100624.91;5036170;28;20342;-73
2023/07/23 05:18:27;;;;;;;;;;;;;;;13.82;100.00;100612.00;5036137;28;19913;-74
2023/07/23 05:20:52;;;;;;;;;;;;;;;13.82;100.00;100614.66;5036117;28;20028;-73
2023/07/23 05:23:21;;;;;;;;;;;;;;;13.83;100.00;100607.50;5036020;28;19917;-74
2023/07/23 05:25:46;;;;;;;;;;;;;;;13.81;100.00;100606.81;5036063;28;20000;-74
2023/07/23 05:28:12;;;;;;;;;;;;;;;13.75;100.00;100611.00;5035588;28;19971;-78
2023/07/23 05:30:38;;;;;;;;;;;;;;;13.70;100.00;100606.16;5035593;28;19949;-73
2023/07/23 05:33:03;;;;;;;;;;;;;;;13.70;100.00;100610.66;5035576;28;20377;-72
2023/07/23 05:35:28;;;;;;;;;;;;;;;13.64;100.00;100604.13;5035721;28;19917;-73
2023/07/23 05:37:53;;;;;;;;;;;;;;;13.64;100.00;100605.97;5035487;28;20007;-74
2023/07/23 05:40:20;;;;;;;;;;;;;;;13.61;100.00;100599.09;5018134;28;19917;-73
2023/07/23 05:42:45;;;;;;;;;;;;;;;13.60;100.00;100607.28;5035769;28;19921;-75
2023/07/23 05:45:10;;;;;;;;;;;;;;;13.58;100.00;100602.13;5035222;28;19928;-74
2023/07/23 05:47:36;;;;;;;;;;;;;;;13.53;100.00;100589.25;5035552;28;19917;-75
2023/07/23 05:50:01;;;;;;;;;;;;;;;13.52;100.00;100597.44;5035264;28;19967;-73
2023/07/23 05:52:26;;;;;;;;;;;;;;;13.52;100.00;100590.25;5034353;28;19939;-74
2023/07/23 05:54:52;;;;;;;;;;;;;;;13.52;100.00;100602.78;5035994;28;19935;-74
2023/07/23 05:57:17;;;;;;;;;;;;;;;13.51;100.00;100591.25;5035060;28;20285;-74
2023/07/23 05:59:42;;;;;;;;;;;;;;;13.56;100.00;100593.44;5035941;28;19956;-74
2023/07/23 06:02:08;;;;;;;;;;;;;;;13.57;100.00;100603.97;5035672;28;19924;-75
2023/07/23 06:04:33;;;;;;;;;;;;;;;13.56;100.00;100598.78;5034997;28;20412;-73
2023/07/23 06:06:58;;;;;;;;;;;;;;;13.55;100.00;100597.09;5035242;28;20281;-73
2023/07/23 06:09:25;;;;;;;;;;;;;;;13.53;100.00;100597.25;5035678;28;19917;-73
2023/07/23 06:11:51;;;;;;;;;;;;;;;13.53;100.00;100591.09;5035452;28;20314;-73
2023/07/23 06:14:16;;;;;;;;;;;;;;;13.56;100.00;100599.59;5017459;28;19924;-73
2023/07/23 06:16:42;;;;;;;;;;;;;;;13.57;100.00;100603.13;5034961;28;19917;-73
2023/07/23 06:19:07;;;;;;;;;;;;;;;13.60;100.00;100597.47;5034969;28;20000;-73
2023/07/23 06:21:32;;;;;;;;;;;;;;;13.63;100.00;100597.13;5033198;28;19956;-73
2023/07/23 06:23:58;;;;;;;;;;;;;;;13.71;100.00;100591.78;5034886;28;19919;-73
2023/07/23 06:26:23;;;;;;;;;;;;;;;13.79;100.00;100598.13;5034378;28;19917;-75
2023/07/23 06:28:48;;;;;;;;;;;;;;;13.79;100.00;100596.28;5034818;28;19924;-73
2023/07/23 06:31:13;;;;;;;;;;;;;;;13.82;100.00;100587.94;5035162;28;19979;-73
2023/07/23 06:33:39;;;;;;;;;;;;;;;13.80;100.00;100597.97;5034611;28;20012;-73
2023/07/23 06:36:04;;;;;;;;;;;;;;;13.82;100.00;100592.44;5034690;28;20404;-73
2023/07/23 06:38:29;;;;;;;;;;;;;;;13.82;100.00;100593.28;5035084;28;19921;-73
2023/07/23 06:40:55;;;;;;;;;;;;;;;13.86;100.00;100581.25;5034923;28;20289;-74
2023/07/23 06:43:21;;;;;;;;;;;;;;;13.96;100.00;100589.13;5034631;28;19920;-73
2023/07/23 06:45:47;;;;;;;;;;;;;;;14.09;100.00;100591.28;5035034;28;20016;-73
2023/07/23 06:48:13;;;;;;;;;;;;;;;14.16;100.00;100596.81;5035321;28;19913;-73
2023/07/23 06:50:38;;;;;;;;;;;;;;;14.20;100.00;100592.78;5034607;28;19921;-73
2023/07/23 06:53:04;;;;;;;;;;;;;;;14.24;100.00;100594.97;5017395;28;19917;-73
2023/07/23 06:55:29;;;;;;;;;;;;;;;14.31;100.00;100602.31;5034282;28;19917;-73
2023/07/23 06:57:55;;;;;;;;;;;;;;;14.34;100.00;100586.72;5034551;28;19989;-73
2023/07/23 07:00:20;;;;;;;;;;;;;;;14.37;100.00;100596.28;5034316;28;20328;-72
2023/07/23 07:02:45;;;;;;;;;;;;;;;14.42;100.00;100592.09;5033572;28;19924;-73
2023/07/23 07:05:10;;;;;;;;;;;;;;;14.48;100.00;100595.06;5034497;28;19940;-72
2023/07/23 07:07:37;;;;;;;;;;;;;;;14.54;100.00;100586.34;5033680;28;20404;-72
2023/07/23 07:10:03;;;;;;;;;;;;;;;14.59;100.00;100589.38;5033973;28;19960;-74
2023/07/23 07:12:28;;;;;;;;;;;;;;;14.57;100.00;100586.00;5000321;28;19916;-73
2023/07/23 07:14:54;;;;;;;;;;;;;;;14.59;100.00;100584.84;5034128;28;19967;-73
2023/07/23 07:17:19;;;;;;;;;;;;;;;14.61;100.00;100585.56;5033682;28;20350;-73
2023/07/23 07:19:44;;;;;;;;;;;;;;;14.67;100.00;100577.84;5033308;28;19986;-74
2023/07/23 07:22:10;;;;;;;;;;;;;;;14.72;100.00;100581.66;5033650;28;20012;-74
2023/07/23 07:24:35;;;;;;;;;;;;;;;14.77;100.00;100575.78;5033767;28;19924;-75
2023/07/23 07:27:00;;;;;;;;;;;;;;;14.87;100.00;100575.56;5033706;28;19917;-75
2023/07/23 07:29:26;;;;;;;;;;;;;;;14.97;100.00;100569.03;5033433;28;20405;-75
2023/07/23 07:31:51;;;;;;;;;;;;;;;14.99;100.00;100568.84;5033201;28;19917;-75
2023/07/23 07:34:16;;;;;;;;;;;;;;;15.06;100.00;100566.28;5033402;28;20342;-73
2023/07/23 07:36:41;;;;;;;;;;;;;;;15.09;100.00;100557.91;5033310;28;19935;-74
2023/07/23 07:39:07;;;;;;;;;;;;;;;15.16;100.00;100551.66;5033454;28;19921;-74
2023/07/23 07:41:32;;;;;;;;;;;;;;;15.16;100.00;100564.22;5033346;28;20388;-73
2023/07/23 07:43:57;;;;;;;;;;;;;;;15.18;100.00;100558.69;5033266;28;19964;-73
2023/07/23 07:46:23;;;;;;;;;;;;;;;15.20;100.00;100556.66;5033939;28;19917;-74
2023/07/23 07:48:48;;;;;;;;;;;;;;;15.18;100.00;100566.72;5033256;28;19913;-74
2023/07/23 07:51:14;;;;;;;;;;;;;;;15.22;100.00;100555.47;5033631;28;19913;-74
2023/07/23 07:53:39;;;;;;;;;;;;;;;15.22;100.00;100560.00;5033066;28;19967;-73
2023/07/23 07:56:05;;;;;;;;;;;;;;;15.25;100.00;100559.66;5033770;28;20313;-73
2023/07/23 07:58:30;;;;;;;;;;;;;;;15.24;100.00;100566.88;5033249;28;19921;-72
2023/07/23 08:00:57;;;;;;;;;;;;;;;15.26;100.00;100562.16;5033192;28;19917;-74
2023/07/23 08:03:23;;;;;;;;;;;;;;;15.24;100.00;100561.50;5033476;28;19958;-73
2023/07/23 08:05:49;;;;;;;;;;;;;;;15.26;100.00;100558.66;5033592;28;20059;-72
2023/07/23 08:08:15;;;;;;;;;;;;;;;15.30;100.00;100562.63;5033124;28;20015;-73
2023/07/23 08:10:40;;;;;;;;;;;;;;;15.25;100.00;100563.16;5033036;28;19920;-73
2023/07/23 08:13:06;;;;;;;;;;;;;;;15.30;100.00;100557.28;5033313;28;19917;-75
2023/07/23 08:15:31;;;;;;;;;;;;;;;15.30;100.00;100565.31;5001657;28;19917;-74
2023/07/23 08:17:57;;;;;;;;;;;;;;;15.34;100.00;100559.41;5019805;28;19913;-73
2023/07/23 08:20:22;;;;;;;;;;;;;;;15.40;100.00;100560.56;5037475;28;20003;-76
2023/07/23 08:22:48;;;;;;;;;;;;;;;15.40;100.00;100568.59;5036786;28;19913;-74
2023/07/23 08:25:13;;;;;;;;;;;;;;;15.43;100.00;100564.75;5036858;28;19920;-74
2023/07/23 08:27:40;;;;;;;;;;;;;;;15.47;100.00;100558.03;5036443;28;19917;-74
2023/07/23 08:30:06;;;;;;;;;;;;;;;15.51;100.00;100562.03;5037004;28;20369;-72
2023/07/23 08:32:32;;;;;;;;;;;;;;;15.51;100.00;100562.84;5036970;28;19917;-74
2023/07/23 08:34:58;;;;;;;;;;;;;;;15.45;100.00;100560.88;5019134;28;20012;-73
2023/07/23 08:37:24;;;;;;;;;;;;;;;15.51;100.00;100572.75;5036884;28;19921;-73
2023/07/23 08:39:49;;;;;;;;;;;;;;;15.56;100.00;100565.00;5036468;28;19917;-73
2023/07/23 08:42:17;;;;;;;;;;;;;;;15.59;100.00;100558.44;5036805;28;19917;-72
2023/07/23 08:45:03;;;;;;;;;;;;;;;15.65;100.00;100565.75;5036309;28;19962;-73
2023/07/23 08:47:29;;;;;;;;;;;;;;;15.69;100.00;100569.75;5036718;28;19960;-74
2023/07/23 08:49:55;;;;;;;;;;;;;;;15.75;100.00;100565.50;5036350;28;19949;-74
2023/07/23 08:52:21;;;;;;;;;;;;;;;15.75;100.00;100557.47;5036532;28;19924;-72
2023/07/23 08:54:47;;;;;;;;;;;;;;;15.82;100.00;100563.81;5036277;28;19917;-74
2023/07/23 08:57:12;;;;;;;;;;;;;;;15.82;100.00;100569.19;5036611;28;19913;-73
2023/07/23 08:59:39;;;;;;;;;;;;;;;15.80;100.00;100560.50;5036178;28;19917;-73
2023/07/23 09:02:04;;;;;;;;;;;;;;;15.84;100.00;100567.16;5036016;28;20327;-73
2023/07/23 09:04:30;;;;;;;;;;;;;;;15.74;100.00;100569.22;5036924;28;19949;-74
2023/07/23 09:06:56;;;;;;;;;;;;;;;15.74;100.00;100567.38;5036691;28;19940;-73
2023/07/23 09:09:22;;;;;;;;;;;;;;;15.76;100.00;100573.38;5035651;28;19913;-73
2023/07/23 09:11:47;;;;;;;;;;;;;;;15.75;100.00;100569.03;5035598;28;19923;-75
2023/07/23 09:14:13;;;;;;;;;;;;;;;15.83;100.00;100562.81;5036157;28;19923;-74
2023/07/23 09:16:40;;;;;;;;;;;;;;;15.84;100.00;100580.59;5036181;28;19988;-74
2023/07/23 09:19:07;;;;;;;;;;;;;;;15.81;100.00;100581.75;5035525;28;19944;-73
2023/07/23 09:21:32;;;;;;;;;;;;;;;15.78;100.00;100581.28;5035789;28;20353;-73
2023/07/23 09:23:58;;;;;;;;;;;;;;;15.69;100.00;100592.03;5018165;28;19924;-74
2023/07/23 09:26:26;;;;;;;;;;;;;;;15.63;100.00;100581.19;5035923;28;19917;-74
2023/07/23 09:28:52;;;;;;;;;;;;;;;15.58;100.00;100584.41;5035523;28;19990;-73
2023/07/23 09:31:21;;;;;;;;;;;;;;;15.52;100.00;100594.00;5035444;28;19924;-75
2023/07/23 09:33:47;;;;;;;;;;;;;;;15.45;100.00;100585.00;5035867;28;19913;-75
2023/07/23 09:36:12;;;;;;;;;;;;;;;15.48;100.00;100595.38;5035491;28;19917;-77
2023/07/23 09:38:39;;;;;;;;;;;;;;;15.52;100.00;100590.47;5035225;28;19924;-73
2023/07/23 09:41:04;;;;;;;;;;;;;;;15.59;100.00;100594.13;5035692;28;20242;-71
2023/07/23 09:43:33;;;;;;;;;;;;;;;15.67;100.00;100601.28;5035256;28;19928;-72
2023/07/23 09:45:59;;;;;;;;;;;;;;;15.76;100.00;100594.84;5034518;28;19916;-73
2023/07/23 09:48:26;;;;;;;;;;;;;;;15.82;100.00;100596.00;5035086;28;19917;-74
2023/07/23 09:50:56;;;;;;;;;;;;;;;15.83;100.00;100595.81;5035242;28;19984;-76
2023/07/23 09:53:21;;;;;;;;;;;;;;;15.81;100.00;100583.63;5035141;28;19948;-75
2023/07/23 09:55:47;;;;;;;;;;;;;;;15.76;100.00;100589.47;5035414;28;19924;-74
2023/07/23 09:58:15;;;;;;;;;;;;;;;15.76;100.00;100584.09;5034984;28;19913;-76
2023/07/23 10:00:41;;;;;;;;;;;;;;;15.79;100.00;100586.47;5035907;28;19917;-73
2023/07/23 10:03:06;;;;;;;;;;;;;;;15.81;100.00;100595.19;5034995;28;19913;-74
2023/07/23 10:05:33;;;;;;;;;;;;;;;15.84;100.00;100592.13;5034958;28;19962;-73
2023/07/23 10:08:00;;;;;;;;;;;;;;;15.82;100.00;100591.50;5034698;28;19913;-72
2023/07/23 10:10:25;;;;;;;;;;;;;;;15.85;100.00;100601.00;5035011;28;19924;-73
2023/07/23 10:12:50;;;;;;;;;;;;;;;15.93;100.00;100594.75;5035041;28;20276;-73
2023/07/23 10:15:16;;;;;;;;;;;;;;;16.06;100.00;100594.97;5035549;28;19936;-73
2023/07/23 10:17:51;;;;;;;;;;;;;;;16.20;100.00;100598.72;5017501;28;19957;-74
2023/07/23 10:20:17;;;;;;;;;;;;;;;16.36;100.00;100597.72;5034693;28;20003;-74
2023/07/23 10:22:46;;;;;;;;;;;;;;;16.53;100.00;100603.75;5035415;28;20356;-72
2023/07/23 10:25:30;;;;;;;;;;;;;;;16.53;100.00;100604.59;5034809;28;20349;-72
2023/07/23 10:28:03;;;;;;;;;;;;;;;16.53;100.00;100591.16;5035507;28;19939;-73
2023/07/23 10:30:29;;;;;;;;;;;;;;;16.61;100.00;100592.09;5017661;28;20302;-72
2023/07/23 10:33:18;;;;;;;;;;;;;;;16.73;100.00;100598.66;5034609;28;19913;-74
2023/07/23 10:35:52;;;;;;;;;;;;;;;17.01;100.00;100595.34;5026534;28;20346;-73
2023/07/23 10:38:21;;;;;;;;;;;;;;;17.29;100.00;100598.19;5034090;28;19920;-73
2023/07/23 10:40:47;;;;;;;;;;;;;;;17.60;100.00;100595.22;5034578;28;19979;-72
2023/07/23 10:43:13;;;;;;;;;;;;;;;17.98;100.00;100594.13;5034398;28;20317;-72
2023/07/23 10:45:38;;;;;;;;;;;;;;;18.40;100.00;100595.06;5016604;28;20358;-73
2023/07/23 10:48:04;;;;;;;;;;;;;;;18.70;100.00;100594.03;5016681;28;19959;-73
2023/07/23 10:50:30;;;;;;;;;;;;;;;18.64;100.00;100587.56;5033972;28;19917;-72
2023/07/23 10:53:05;;;;;;;;;;;;;;;18.37;100.00;100581.19;5034327;28;19917;-72
2023/07/23 10:55:31;;;;;;;;;;;;;;;18.22;100.00;100587.50;5034275;28;20419;-72
2023/07/23 10:57:57;;;;;;;;;;;;;;;18.08;100.00;100583.88;5016649;28;19921;-73
2023/07/23 11:00:22;;;;;;;;;;;;;;;17.90;100.00;100589.72;5016631;28;20258;-72
2023/07/23 11:02:48;;;;;;;;;;;;;;;17.78;100.00;100581.31;5034124;28;19924;-73
2023/07/23 11:05:13;;;;;;;;;;;;;;;17.85;100.00;100594.00;5016228;28;19967;-72
2023/07/23 11:07:38;;;;;;;;;;;;;;;18.00;100.00;100593.94;5034383;28;19913;-73
2023/07/23 11:10:20;;;;;;;;;;;;;;;18.26;100.00;100580.69;5033326;28;19917;-74
2023/07/23 11:12:45;;;;;;;;;;;;;;;18.54;100.00;100597.88;5034471;28;19945;-72
2023/07/23 11:15:14;;;;;;;;;;;;;;;18.75;100.00;100613.13;5033617;28;20000;-76
2023/07/23 11:17:39;;;;;;;;;;;;;;;18.85;100.00;100584.84;5033418;28;19913;-75
2023/07/23 11:20:05;;;;;;;;;;;;;;;19.08;100.00;100591.78;5033521;28;19916;-74
2023/07/23 11:22:30;;;;;;;;;;;;;;;19.12;100.00;100593.03;5015372;28;19932;-74
2023/07/23 11:24:55;;;;;;;;;;;;;;;19.33;100.00;100588.53;5033601;28;19921;-72
2023/07/23 11:27:20;;;;;;;;;;;;;;;19.49;100.00;100607.03;5033126;28;19924;-76
2023/07/23 11:29:46;;;;;;;;;;;;;;;19.63;100.00;100578.22;5033205;28;20011;-75
2023/07/23 11:32:13;;;;;;;;;;;;;;;20.21;100.00;100591.16;5034399;28;20008;-74
2023/07/23 11:34:38;;;;;;;;;;;;;;;20.32;100.00;100586.16;5033429;28;19917;-74
2023/07/23 11:37:08;;;;;;;;;;;;;;;20.29;100.00;100581.16;5033985;28;19921;-73
2023/07/23 11:39:33;;;;;;;;;;;;;;;20.17;100.00;100579.13;5033863;28;19914;-76
2023/07/23 11:41:58;;;;;;;;;;;;;;;20.21;100.00;100590.31;5033934;28;20050;-74
2023/07/23 11:44:24;;;;;;;;;;;;;;;20.09;100.00;100592.81;5032837;28;19921;-76
2023/07/23 11:46:49;;;;;;;;;;;;;;;20.25;100.00;100583.47;5033542;28;19913;-76
2023/07/23 11:49:14;;;;;;;;;;;;;;;20.41;100.00;100579.50;5015495;28;20305;-80
2023/07/23 11:51:40;;;;;;;;;;;;;;;20.46;100.00;100581.56;5020820;28;19913;-77
2023/07/23 11:54:09;;;;;;;;;;;;;;;20.34;100.00;100575.97;5037628;28;20327;-77
2023/07/23 11:56:38;;;;;;;;;;;;;;;20.26;100.00;100583.25;5038266;28;19975;-76
2023/07/23 11:59:08;;;;;;;;;;;;;;;20.63;100.00;100581.94;5020051;28;20323;-76
2023/07/23 12:01:35;;;;;;;;;;;;;;;21.29;100.00;100580.91;5038252;28;19955;-78
2023/07/23 12:04:01;;;;;;;;;;;;;;;21.85;100.00;100587.44;5038039;28;20003;-80
2023/07/23 12:06:28;;;;;;;;;;;;;;;21.86;100.00;100577.44;5037354;28;20377;-77
2023/07/23 12:08:53;;;;;;;;;;;;;;;21.78;100.00;100570.41;5037529;28;19913;-79
2023/07/23 12:11:18;;;;;;;;;;;;;;;21.98;100.00;100586.50;5036506;28;19920;-78
2023/07/23 12:13:45;;;;;;;;;;;;;;;22.08;100.00;100567.88;5037477;28;19971;-75
2023/07/23 12:16:11;;;;;;;;;;;;;;;21.69;100.00;100594.22;5036974;28;19920;-76
2023/07/23 12:18:42;;;;;;;;;;;;;;;21.51;100.00;100605.75;5036660;28;19913;-76
2023/07/23 12:21:08;;;;;;;;;;;;;;;21.40;100.00;100582.09;5037207;28;19913;-77